sensor_id;sensor_type;location;lat;lon;timestamp;pressure;altitude;pressure_sealevel;temperature;humidity
62103;BME280;48077;48.104;11.702;2023-04-24T00:01:00;94626.56;;;8.96;100.00
62103;BME280;48077;48.104;11.702;2023-04-24T00:07:41;94595.63;;;8.73;100.00
62103;BME280;48077;48.104;11.702;2023-04-24T00:10:06;94614.72;;;8.86;100.00
62103;BME280;48077;48.104;11.702;2023-04-24T00:12:30;94607.72;;;8.80;100.00
62103;BME280;48077;48.104;11.702;2023-04-24T00:14:53;94614.16;;;8.84;100.00
62103;BME280;48077;48.104;11.702;2023-04-24T00:17:17;94612.63;;;8.88;100.00
62103;BME280;48077;48.104;11.702;2023-04-24T00:19:43;94611.25;;;8.86;100.00
62103;BME280;48077;48.104;11.702;2023-04-24T00:22:07;94608.03;;;8.84;100.00
62103;BME280;48077;48.104;11.702;2023-04-24T00:24:31;94605.56;;;8.77;100.00
62103;BME280;48077;48.104;11.702;2023-04-24T00:26:54;94598.72;;;8.81;100.00
62103;BME280;48077;48.104;11.702;2023-04-24T00:29:17;94600.31;;;8.82;100.00
62103;BME280;48077;48.104;11.702;2023-04-24T00:31:41;94586.28;;;8.70;100.00
62103;BME280;48077;48.104;11.702;2023-04-24T00:34:04;94605.78;;;8.76;100.00
62103;BME280;48077;48.104;11.702;2023-04-24T00:36:28;94603.13;;;8.76;100.00
62103;BME280;48077;48.104;11.702;2023-04-24T00:38:54;94588.06;;;8.64;100.00
62103;BME280;48077;48.104;11.702;2023-04-24T00:41:18;94605.28;;;8.79;100.00
62103;BME280;48077;48.104;11.702;2023-04-24T00:43:42;94605.00;;;8.75;100.00
62103;BME280;48077;48.104;11.702;2023-04-24T00:46:08;94593.94;;;8.66;100.00
62103;BME280;48077;48.104;11.702;2023-04-24T00:48:32;94595.56;;;8.67;100.00
62103;BME280;48077;48.104;11.702;2023-04-24T00:50:56;94596.84;;;8.65;100.00
62103;BME280;48077;48.104;11.702;2023-04-24T00:53:20;94593.38;;;8.64;100.00
62103;BME280;48077;48.104;11.702;2023-04-24T00:55:44;94589.03;;;8.58;100.00
62103;BME280;48077;48.104;11.702;2023-04-24T00:58:07;94592.56;;;8.64;100.00
62103;BME280;48077;48.104;11.702;2023-04-24T01:00:31;94582.03;;;8.52;100.00
62103;BME280;48077;48.104;11.702;2023-04-24T01:02:55;94586.06;;;8.55;100.00
62103;BME280;48077;48.104;11.702;2023-04-24T01:05:18;94579.38;;;8.52;100.00
62103;BME280;48077;48.104;11.702;2023-04-24T01:07:44;94587.09;;;8.54;100.00
62103;BME280;48077;48.104;11.702;2023-04-24T01:10:09;94575.50;;;8.43;100.00
62103;BME280;48077;48.104;11.702;2023-04-24T01:12:32;94587.19;;;8.42;100.00
62103;BME280;48077;48.104;11.702;2023-04-24T01:14:56;94593.38;;;8.47;100.00
62103;BME280;48077;48.104;11.702;2023-04-24T01:17:19;94590.50;;;8.49;100.00
62103;BME280;48077;48.104;11.702;2023-04-24T01:19:44;94575.63;;;8.36;100.00
62103;BME280;48077;48.104;11.702;2023-04-24T01:22:14;94594.56;;;8.40;100.00
62103;BME280;48077;48.104;11.702;2023-04-24T01:24:37;94565.88;;;8.25;100.00
62103;BME280;48077;48.104;11.702;2023-04-24T01:27:01;94586.44;;;8.29;100.00
62103;BME280;48077;48.104;11.702;2023-04-24T01:29:24;94585.69;;;8.34;100.00
62103;BME280;48077;48.104;11.702;2023-04-24T01:31:48;94592.88;;;8.34;100.00
62103;BME280;48077;48.104;11.702;2023-04-24T01:34:11;94594.41;;;8.29;100.00
62103;BME280;48077;48.104;11.702;2023-04-24T01:36:36;94598.88;;;8.29;100.00
62103;BME280;48077;48.104;11.702;2023-04-24T01:39:00;94598.66;;;8.30;100.00
62103;BME280;48077;48.104;11.702;2023-04-24T01:41:24;94594.63;;;8.28;100.00
62103;BME280;48077;48.104;11.702;2023-04-24T01:43:48;94576.34;;;8.15;100.00
62103;BME280;48077;48.104;11.702;2023-04-24T01:46:12;94592.69;;;8.23;100.00
62103;BME280;48077;48.104;11.702;2023-04-24T01:48:35;94600.91;;;8.22;100.00
62103;BME280;48077;48.104;11.702;2023-04-24T01:50:59;94596.31;;;8.17;100.00
62103;BME280;48077;48.104;11.702;2023-04-24T01:53:22;94594.03;;;8.09;100.00
62103;BME280;48077;48.104;11.702;2023-04-24T01:55:46;94574.56;;;8.03;100.00
62103;BME280;48077;48.104;11.702;2023-04-24T01:58:09;94593.81;;;8.10;100.00
62103;BME280;48077;48.104;11.702;2023-04-24T02:00:33;94595.34;;;8.06;100.00
62103;BME280;48077;48.104;11.702;2023-04-24T02:02:56;94605.13;;;8.06;100.00
62103;BME280;48077;48.104;11.702;2023-04-24T02:05:20;94581.31;;;7.94;100.00
62103;BME280;48077;48.104;11.702;2023-04-24T02:07:43;94577.81;;;7.94;100.00
62103;BME280;48077;48.104;11.702;2023-04-24T02:10:07;94591.09;;;7.94;100.00
62103;BME280;48077;48.104;11.702;2023-04-24T02:12:30;94577.41;;;7.85;100.00
62103;BME280;48077;48.104;11.702;2023-04-24T02:14:54;94583.13;;;7.94;100.00
62103;BME280;48077;48.104;11.702;2023-04-24T02:17:17;94572.00;;;7.80;100.00
62103;BME280;48077;48.104;11.702;2023-04-24T02:19:42;94586.84;;;7.93;100.00
62103;BME280;48077;48.104;11.702;2023-04-24T02:22:05;94584.66;;;7.89;100.00
62103;BME280;48077;48.104;11.702;2023-04-24T02:24:28;94577.41;;;7.85;100.00
62103;BME280;48077;48.104;11.702;2023-04-24T02:26:52;94563.72;;;7.76;100.00
62103;BME280;48077;48.104;11.702;2023-04-24T02:29:15;94565.91;;;7.79;100.00
62103;BME280;48077;48.104;11.702;2023-04-24T02:31:38;94554.16;;;7.75;100.00
62103;BME280;48077;48.104;11.702;2023-04-24T02:34:02;94581.69;;;7.86;100.00
62103;BME280;48077;48.104;11.702;2023-04-24T02:36:25;94589.88;;;7.84;100.00
62103;BME280;48077;48.104;11.702;2023-04-24T02:38:49;94565.00;;;7.74;100.00
62103;BME280;48077;48.104;11.702;2023-04-24T02:41:12;94580.22;;;7.78;100.00
62103;BME280;48077;48.104;11.702;2023-04-24T02:43:36;94557.63;;;7.64;100.00
62103;BME280;48077;48.104;11.702;2023-04-24T02:45:59;94559.50;;;7.63;100.00
62103;BME280;48077;48.104;11.702;2023-04-24T02:48:23;94565.59;;;7.64;100.00
62103;BME280;48077;48.104;11.702;2023-04-24T02:50:46;94551.13;;;7.55;100.00
62103;BME280;48077;48.104;11.702;2023-04-24T02:53:10;94572.63;;;7.70;100.00
62103;BME280;48077;48.104;11.702;2023-04-24T02:55:34;94567.22;;;7.65;100.00
62103;BME280;48077;48.104;11.702;2023-04-24T02:57:57;94571.03;;;7.69;100.00
62103;BME280;48077;48.104;11.702;2023-04-24T03:00:20;94588.50;;;7.82;100.00
62103;BME280;48077;48.104;11.702;2023-04-24T03:02:44;94532.00;;;7.41;100.00
62103;BME280;48077;48.104;11.702;2023-04-24T03:05:08;94575.50;;;7.68;100.00
62103;BME280;48077;48.104;11.702;2023-04-24T03:07:32;94579.06;;;7.74;100.00
62103;BME280;48077;48.104;11.702;2023-04-24T03:09:55;94567.47;;;7.63;100.00
62103;BME280;48077;48.104;11.702;2023-04-24T03:12:21;94568.38;;;7.69;100.00
62103;BME280;48077;48.104;11.702;2023-04-24T03:14:46;94559.94;;;7.60;100.00
62103;BME280;48077;48.104;11.702;2023-04-24T03:17:10;94586.81;;;7.76;100.00
62103;BME280;48077;48.104;11.702;2023-04-24T03:19:33;94569.41;;;7.68;100.00
62103;BME280;48077;48.104;11.702;2023-04-24T03:21:56;94573.09;;;7.67;100.00
62103;BME280;48077;48.104;11.702;2023-04-24T03:24:20;94590.16;;;7.71;100.00
62103;BME280;48077;48.104;11.702;2023-04-24T03:26:43;94591.53;;;7.74;100.00
62103;BME280;48077;48.104;11.702;2023-04-24T03:29:07;94581.94;;;7.73;100.00
62103;BME280;48077;48.104;11.702;2023-04-24T03:31:30;94573.56;;;7.64;100.00
62103;BME280;48077;48.104;11.702;2023-04-24T03:33:54;94594.53;;;7.77;100.00
62103;BME280;48077;48.104;11.702;2023-04-24T03:36:17;94574.13;;;7.66;100.00
62103;BME280;48077;48.104;11.702;2023-04-24T03:38:42;94599.28;;;7.75;100.00
62103;BME280;48077;48.104;11.702;2023-04-24T03:41:07;94601.09;;;7.75;100.00
62103;BME280;48077;48.104;11.702;2023-04-24T03:43:31;94577.50;;;7.61;100.00
62103;BME280;48077;48.104;11.702;2023-04-24T03:45:56;94595.13;;;7.67;100.00
62103;BME280;48077;48.104;11.702;2023-04-24T03:48:20;94600.78;;;7.71;100.00
62103;BME280;48077;48.104;11.702;2023-04-24T03:50:43;94587.88;;;7.63;100.00
62103;BME280;48077;48.104;11.702;2023-04-24T03:53:06;94590.28;;;7.64;100.00
62103;BME280;48077;48.104;11.702;2023-04-24T03:55:30;94596.28;;;7.72;100.00
62103;BME280;48077;48.104;11.702;2023-04-24T03:57:53;94574.84;;;7.61;100.00
62103;BME280;48077;48.104;11.702;2023-04-24T04:00:17;94581.63;;;7.69;100.00
62103;BME280;48077;48.104;11.702;2023-04-24T04:02:41;94551.56;;;7.52;100.00
62103;BME280;48077;48.104;11.702;2023-04-24T04:05:05;94584.59;;;7.73;100.00
62103;BME280;48077;48.104;11.702;2023-04-24T04:07:28;94569.53;;;7.61;100.00
62103;BME280;48077;48.104;11.702;2023-04-24T04:09:53;94563.91;;;7.58;100.00
62103;BME280;48077;48.104;11.702;2023-04-24T04:12:16;94576.34;;;7.69;100.00
62103;BME280;48077;48.104;11.702;2023-04-24T04:14:39;94574.94;;;7.66;100.00
62103;BME280;48077;48.104;11.702;2023-04-24T04:17:03;94575.19;;;7.65;100.00
62103;BME280;48077;48.104;11.702;2023-04-24T04:19:26;94568.19;;;7.59;100.00
62103;BME280;48077;48.104;11.702;2023-04-24T04:21:49;94580.34;;;7.72;100.00
62103;BME280;48077;48.104;11.702;2023-04-24T04:24:19;94574.25;;;7.71;100.00
62103;BME280;48077;48.104;11.702;2023-04-24T04:26:43;94576.34;;;7.69;100.00
62103;BME280;48077;48.104;11.702;2023-04-24T04:29:10;94558.34;;;7.59;100.00
62103;BME280;48077;48.104;11.702;2023-04-24T04:31:33;94579.28;;;7.73;100.00
62103;BME280;48077;48.104;11.702;2023-04-24T04:33:57;94583.00;;;7.72;100.00
62103;BME280;48077;48.104;11.702;2023-04-24T04:36:20;94584.28;;;7.69;100.00
62103;BME280;48077;48.104;11.702;2023-04-24T04:38:44;94586.47;;;7.72;100.00
62103;BME280;48077;48.104;11.702;2023-04-24T04:41:07;94590.97;;;7.72;100.00
62103;BME280;48077;48.104;11.702;2023-04-24T04:43:31;94582.91;;;7.66;100.00
62103;BME280;48077;48.104;11.702;2023-04-24T04:45:55;94578.88;;;7.64;100.00
62103;BME280;48077;48.104;11.702;2023-04-24T04:48:19;94584.19;;;7.64;100.00
62103;BME280;48077;48.104;11.702;2023-04-24T04:50:42;94568.88;;;7.54;100.00
62103;BME280;48077;48.104;11.702;2023-04-24T04:53:05;94587.88;;;7.63;100.00
62103;BME280;48077;48.104;11.702;2023-04-24T04:55:29;94590.28;;;7.64;100.00
62103;BME280;48077;48.104;11.702;2023-04-24T04:57:53;94582.81;;;7.61;100.00
62103;BME280;48077;48.104;11.702;2023-04-24T05:00:16;94606.09;;;7.71;100.00
62103;BME280;48077;48.104;11.702;2023-04-24T05:02:40;94583.53;;;7.57;100.00
62103;BME280;48077;48.104;11.702;2023-04-24T05:05:03;94610.84;;;7.69;100.00
62103;BME280;48077;48.104;11.702;2023-04-24T05:07:29;94607.84;;;7.65;100.00
62103;BME280;48077;48.104;11.702;2023-04-24T05:09:52;94616.94;;;7.69;100.00
62103;BME280;48077;48.104;11.702;2023-04-24T05:12:16;94619.59;;;7.69;100.00
62103;BME280;48077;48.104;11.702;2023-04-24T05:14:39;94622.81;;;7.72;100.00
62103;BME280;48077;48.104;11.702;2023-04-24T05:17:03;94619.94;;;7.73;100.00
62103;BME280;48077;48.104;11.702;2023-04-24T05:19:27;94610.16;;;7.62;100.00
62103;BME280;48077;48.104;11.702;2023-04-24T05:21:50;94616.38;;;7.67;100.00
62103;BME280;48077;48.104;11.702;2023-04-24T05:24:13;94631.69;;;7.77;100.00
62103;BME280;48077;48.104;11.702;2023-04-24T05:26:37;94633.88;;;7.80;100.00
62103;BME280;48077;48.104;11.702;2023-04-24T05:29:04;94619.59;;;7.69;100.00
62103;BME280;48077;48.104;11.702;2023-04-24T05:31:27;94632.34;;;7.84;100.00
62103;BME280;48077;48.104;11.702;2023-04-24T05:33:56;94629.69;;;7.84;100.00
62103;BME280;48077;48.104;11.702;2023-04-24T05:36:20;94606.91;;;7.72;100.00
62103;BME280;48077;48.104;11.702;2023-04-24T05:38:43;94636.16;;;7.88;100.00
62103;BME280;48077;48.104;11.702;2023-04-24T05:41:07;94617.78;;;7.87;100.00
62103;BME280;48077;48.104;11.702;2023-04-24T05:43:30;94622.16;;;7.93;100.00
62103;BME280;48077;48.104;11.702;2023-04-24T05:45:53;94628.16;;;8.00;100.00
62103;BME280;48077;48.104;11.702;2023-04-24T05:48:17;94624.66;;;8.00;100.00
62103;BME280;48077;48.104;11.702;2023-04-24T05:50:40;94623.06;;;7.99;100.00
62103;BME280;48077;48.104;11.702;2023-04-24T05:53:04;94625.50;;;8.00;100.00
62103;BME280;48077;48.104;11.702;2023-04-24T05:55:27;94613.47;;;7.98;100.00
62103;BME280;48077;48.104;11.702;2023-04-24T05:57:51;94587.38;;;7.78;100.00
62103;BME280;48077;48.104;11.702;2023-04-24T06:00:14;94616.13;;;7.98;100.00
62103;BME280;48077;48.104;11.702;2023-04-24T06:02:39;94627.44;;;8.05;100.00
62103;BME280;48077;48.104;11.702;2023-04-24T06:05:02;94635.25;;;8.11;100.00
62103;BME280;48077;48.104;11.702;2023-04-24T06:07:27;94609.78;;;7.99;100.00
62103;BME280;48077;48.104;11.702;2023-04-24T06:09:51;94636.94;;;8.18;100.00
62103;BME280;48077;48.104;11.702;2023-04-24T06:12:14;94611.84;;;8.08;100.00
62103;BME280;48077;48.104;11.702;2023-04-24T06:14:38;94631.72;;;8.23;100.00
62103;BME280;48077;48.104;11.702;2023-04-24T06:17:01;94627.69;;;8.20;100.00
62103;BME280;48077;48.104;11.702;2023-04-24T06:19:25;94634.56;;;8.33;100.00
62103;BME280;48077;48.104;11.702;2023-04-24T06:21:48;94622.72;;;8.24;100.00
62103;BME280;48077;48.104;11.702;2023-04-24T06:24:14;94634.31;;;8.35;100.00
62103;BME280;48077;48.104;11.702;2023-04-24T06:26:39;94635.69;;;8.37;100.00
62103;BME280;48077;48.104;11.702;2023-04-24T06:29:02;94643.56;;;8.44;100.00
62103;BME280;48077;48.104;11.702;2023-04-24T06:31:26;94637.53;;;8.48;100.00
62103;BME280;48077;48.104;11.702;2023-04-24T06:33:49;94628.53;;;8.38;100.00
62103;BME280;48077;48.104;11.702;2023-04-24T06:36:13;94648.56;;;8.57;100.00
62103;BME280;48077;48.104;11.702;2023-04-24T06:38:36;94637.03;;;8.51;100.00
62103;BME280;48077;48.104;11.702;2023-04-24T06:40:59;94650.72;;;8.60;100.00
62103;BME280;48077;48.104;11.702;2023-04-24T06:43:23;94649.91;;;8.60;100.00
62103;BME280;48077;48.104;11.702;2023-04-24T06:45:46;94638.66;;;8.53;100.00
62103;BME280;48077;48.104;11.702;2023-04-24T06:48:10;94645.41;;;8.60;100.00
62103;BME280;48077;48.104;11.702;2023-04-24T06:50:33;94636.56;;;8.55;100.00
62103;BME280;48077;48.104;11.702;2023-04-24T06:52:57;94651.38;;;8.67;100.00
62103;BME280;48077;48.104;11.702;2023-04-24T06:55:20;94627.13;;;8.64;100.00
62103;BME280;48077;48.104;11.702;2023-04-24T06:57:43;94644.88;;;8.75;100.00
62103;BME280;48077;48.104;11.702;2023-04-24T07:00:08;94631.09;;;8.78;100.00
62103;BME280;48077;48.104;11.702;2023-04-24T07:02:32;94648.38;;;8.98;100.00
62103;BME280;48077;48.104;11.702;2023-04-24T07:04:55;94656.53;;;9.08;100.00
62103;BME280;48077;48.104;11.702;2023-04-24T07:07:20;94644.84;;;9.09;100.00
62103;BME280;48077;48.104;11.702;2023-04-24T07:09:44;94650.63;;;9.23;100.00
62103;BME280;48077;48.104;11.702;2023-04-24T07:12:08;94638.88;;;9.19;100.00
62103;BME280;48077;48.104;11.702;2023-04-24T07:14:33;94663.50;;;9.31;100.00
62103;BME280;48077;48.104;11.702;2023-04-24T07:16:57;94662.22;;;9.34;100.00
62103;BME280;48077;48.104;11.702;2023-04-24T07:19:20;94664.72;;;9.40;100.00
62103;BME280;48077;48.104;11.702;2023-04-24T07:21:43;94663.00;;;9.51;100.00
62103;BME280;48077;48.104;11.702;2023-04-24T07:24:07;94647.03;;;9.51;100.00
62103;BME280;48077;48.104;11.702;2023-04-24T07:26:34;94657.38;;;9.69;100.00
62103;BME280;48077;48.104;11.702;2023-04-24T07:28:58;94669.09;;;9.90;100.00
62103;BME280;48077;48.104;11.702;2023-04-24T07:31:21;94641.41;;;9.69;100.00
62103;BME280;48077;48.104;11.702;2023-04-24T07:33:45;94635.50;;;9.89;96.79
62103;BME280;48077;48.104;11.702;2023-04-24T07:36:08;94666.41;;;10.12;97.54
62103;BME280;48077;48.104;11.702;2023-04-24T07:38:38;94645.03;;;10.07;96.14
62103;BME280;48077;48.104;11.702;2023-04-24T07:41:01;94667.56;;;10.22;94.41
62103;BME280;48077;48.104;11.702;2023-04-24T07:43:25;94632.50;;;10.08;92.33
62103;BME280;48077;48.104;11.702;2023-04-24T07:45:48;94672.34;;;10.20;93.38
62103;BME280;48077;48.104;11.702;2023-04-24T07:48:14;94682.81;;;10.26;94.95
62103;BME280;48077;48.104;11.702;2023-04-24T07:50:39;94672.75;;;10.06;95.96
62103;BME280;48077;48.104;11.702;2023-04-24T07:53:03;94672.41;;;10.03;96.56
62103;BME280;48077;48.104;11.702;2023-04-24T07:55:26;94678.56;;;10.03;96.15
62103;BME280;48077;48.104;11.702;2023-04-24T07:57:49;94625.34;;;9.64;94.99
62103;BME280;48077;48.104;11.702;2023-04-24T08:00:14;94640.47;;;9.81;95.56
62103;BME280;48077;48.104;11.702;2023-04-24T08:02:37;94619.47;;;9.62;96.18
62103;BME280;48077;48.104;11.702;2023-04-24T08:05:01;94675.28;;;9.96;95.62
62103;BME280;48077;48.104;11.702;2023-04-24T08:07:26;94675.22;;;9.91;92.68
62103;BME280;48077;48.104;11.702;2023-04-24T08:09:49;94693.28;;;9.89;92.47
62103;BME280;48077;48.104;11.702;2023-04-24T08:12:13;94646.50;;;9.54;92.53
62103;BME280;48077;48.104;11.702;2023-04-24T08:14:36;94700.44;;;9.83;91.83
62103;BME280;48077;48.104;11.702;2023-04-24T08:17:00;94673.84;;;9.66;92.72
62103;BME280;48077;48.104;11.702;2023-04-24T08:19:24;94606.78;;;9.25;93.59
62103;BME280;48077;48.104;11.702;2023-04-24T08:21:48;94609.50;;;9.30;92.68
62103;BME280;48077;48.104;11.702;2023-04-24T08:24:12;94629.56;;;9.60;89.53
62103;BME280;48077;48.104;11.702;2023-04-24T08:26:35;94699.63;;;10.05;90.28
62103;BME280;48077;48.104;11.702;2023-04-24T08:28:58;94655.63;;;9.80;91.24
62103;BME280;48077;48.104;11.702;2023-04-24T08:31:22;94659.41;;;9.84;91.08
62103;BME280;48077;48.104;11.702;2023-04-24T08:33:45;94681.03;;;9.88;89.15
62103;BME280;48077;48.104;11.702;2023-04-24T08:36:10;94629.88;;;9.42;89.25
62103;BME280;48077;48.104;11.702;2023-04-24T08:38:34;94670.00;;;9.57;90.82
62103;BME280;48077;48.104;11.702;2023-04-24T08:40:58;94701.53;;;9.65;92.93
62103;BME280;48077;48.104;11.702;2023-04-24T08:43:22;94670.84;;;9.41;92.79
62103;BME280;48077;48.104;11.702;2023-04-24T08:45:46;94722.03;;;9.65;92.92
62103;BME280;48077;48.104;11.702;2023-04-24T08:48:09;94722.63;;;9.50;93.87
62103;BME280;48077;48.104;11.702;2023-04-24T08:50:34;94727.38;;;9.48;93.90
62103;BME280;48077;48.104;11.702;2023-04-24T08:52:57;94739.72;;;9.37;94.92
62103;BME280;48077;48.104;11.702;2023-04-24T08:55:21;94753.13;;;9.25;96.13
62103;BME280;48077;48.104;11.702;2023-04-24T08:57:45;94748.03;;;9.07;97.89
62103;BME280;48077;48.104;11.702;2023-04-24T09:00:09;94744.69;;;9.00;98.91
62103;BME280;48077;48.104;11.702;2023-04-24T09:02:33;94765.34;;;9.26;98.58
62103;BME280;48077;48.104;11.702;2023-04-24T09:04:58;94747.78;;;9.25;90.27
62103;BME280;48077;48.104;11.702;2023-04-24T09:07:24;94760.41;;;9.52;86.68
62103;BME280;48077;48.104;11.702;2023-04-24T09:09:50;94748.19;;;9.34;88.84
62103;BME280;48077;48.104;11.702;2023-04-24T09:12:14;94760.03;;;9.26;88.78
62103;BME280;48077;48.104;11.702;2023-04-24T09:14:38;94759.22;;;9.09;86.28
62103;BME280;48077;48.104;11.702;2023-04-24T09:17:09;94756.81;;;9.07;82.88
62103;BME280;48077;48.104;11.702;2023-04-24T09:19:32;94775.75;;;9.11;84.65
62103;BME280;48077;48.104;11.702;2023-04-24T09:21:56;94775.84;;;9.16;84.53
62103;BME280;48077;48.104;11.702;2023-04-24T09:24:21;94769.78;;;9.21;85.65
62103;BME280;48077;48.104;11.702;2023-04-24T09:26:48;94752.44;;;9.18;84.89
62103;BME280;48077;48.104;11.702;2023-04-24T09:29:15;94763.19;;;9.23;84.94
62103;BME280;48077;48.104;11.702;2023-04-24T09:31:39;94756.97;;;9.18;83.06
62103;BME280;48077;48.104;11.702;2023-04-24T09:34:04;94767.69;;;9.23;82.30
62103;BME280;48077;48.104;11.702;2023-04-24T09:36:38;94763.81;;;9.14;84.05
62103;BME280;48077;48.104;11.702;2023-04-24T09:39:02;94717.69;;;8.91;84.65
62103;BME280;48077;48.104;11.702;2023-04-24T09:41:26;94759.31;;;9.31;84.45
62103;BME280;48077;48.104;11.702;2023-04-24T09:43:50;94753.56;;;9.56;82.68
62103;BME280;48077;48.104;11.702;2023-04-24T09:46:13;94756.38;;;9.83;82.11
62103;BME280;48077;48.104;11.702;2023-04-24T09:48:37;94766.16;;;10.22;80.87
62103;BME280;48077;48.104;11.702;2023-04-24T09:51:02;94686.06;;;9.84;79.13
62103;BME280;48077;48.104;11.702;2023-04-24T09:53:27;94755.91;;;10.52;75.74
62103;BME280;48077;48.104;11.702;2023-04-24T09:55:53;94751.91;;;10.55;74.62
62103;BME280;48077;48.104;11.702;2023-04-24T09:58:16;94752.78;;;10.61;74.84
62103;BME280;48077;48.104;11.702;2023-04-24T10:00:39;94753.19;;;10.74;76.30
62103;BME280;48077;48.104;11.702;2023-04-24T10:03:05;94760.19;;;10.81;75.55
62103;BME280;48077;48.104;11.702;2023-04-24T10:05:33;94754.16;;;10.90;75.79
62103;BME280;48077;48.104;11.702;2023-04-24T10:08:08;94752.81;;;10.93;75.34
62103;BME280;48077;48.104;11.702;2023-04-24T10:10:34;94759.78;;;10.94;75.03
62103;BME280;48077;48.104;11.702;2023-04-24T10:12:59;94736.13;;;10.76;74.14
62103;BME280;48077;48.104;11.702;2023-04-24T10:15:24;94724.59;;;10.70;73.16
62103;BME280;48077;48.104;11.702;2023-04-24T10:17:50;94755.50;;;10.93;72.11
62103;BME280;48077;48.104;11.702;2023-04-24T10:20:15;94721.53;;;10.83;73.93
62103;BME280;48077;48.104;11.702;2023-04-24T10:22:39;94736.88;;;10.98;71.02
62103;BME280;48077;48.104;11.702;2023-04-24T10:25:04;94756.84;;;10.96;72.77
62103;BME280;48077;48.104;11.702;2023-04-24T10:27:29;94732.56;;;10.92;73.50
62103;BME280;48077;48.104;11.702;2023-04-24T10:29:54;94752.50;;;11.17;72.42
62103;BME280;48077;48.104;11.702;2023-04-24T10:32:18;94760.03;;;11.25;72.52
62103;BME280;48077;48.104;11.702;2023-04-24T10:34:41;94734.66;;;11.22;71.41
62103;BME280;48077;48.104;11.702;2023-04-24T10:37:05;94745.69;;;11.31;71.80
62103;BME280;48077;48.104;11.702;2023-04-24T10:39:28;94733.44;;;11.35;72.13
62103;BME280;48077;48.104;11.702;2023-04-24T10:41:54;94745.88;;;11.57;70.77
62103;BME280;48077;48.104;11.702;2023-04-24T10:44:21;94742.66;;;11.54;71.68
62103;BME280;48077;48.104;11.702;2023-04-24T10:46:46;94742.34;;;11.46;71.89
62103;BME280;48077;48.104;11.702;2023-04-24T10:49:13;94737.94;;;11.29;71.70
62103;BME280;48077;48.104;11.702;2023-04-24T10:54:33;94739.13;;;11.11;71.94
62103;BME280;48077;48.104;11.702;2023-04-24T10:59:46;94746.63;;;10.87;75.08
62103;BME280;48077;48.104;11.702;2023-04-24T11:02:09;94743.25;;;10.65;76.57
62103;BME280;48077;48.104;11.702;2023-04-24T11:04:33;94795.56;;;10.49;77.05
62103;BME280;48077;48.104;11.702;2023-04-24T11:07:02;94790.44;;;9.81;79.40
62103;BME280;48077;48.104;11.702;2023-04-24T11:09:27;94783.03;;;9.16;84.58
62103;BME280;48077;48.104;11.702;2023-04-24T11:12:02;94783.31;;;8.85;87.79
62103;BME280;48077;48.104;11.702;2023-04-24T11:14:26;94794.03;;;8.62;91.22
62103;BME280;48077;48.104;11.702;2023-04-24T11:16:53;94794.03;;;8.62;92.62
62103;BME280;48077;48.104;11.702;2023-04-24T11:19:23;94759.84;;;8.82;93.14
62103;BME280;48077;48.104;11.702;2023-04-24T11:21:48;94771.06;;;9.18;92.87
62103;BME280;48077;48.104;11.702;2023-04-24T11:27:19;94744.03;;;9.77;91.43
62103;BME280;48077;48.104;11.702;2023-04-24T11:29:47;94774.88;;;10.34;89.71
62103;BME280;48077;48.104;11.702;2023-04-24T11:32:26;94774.34;;;10.81;85.46
62103;BME280;48077;48.104;11.702;2023-04-24T11:34:52;94774.25;;;11.30;81.31
62103;BME280;48077;48.104;11.702;2023-04-24T11:37:16;94765.53;;;11.45;79.68
62103;BME280;48077;48.104;11.702;2023-04-24T11:39:40;94769.81;;;11.84;77.32
62103;BME280;48077;48.104;11.702;2023-04-24T11:42:06;94763.50;;;11.90;76.95
62103;BME280;48077;48.104;11.702;2023-04-24T11:44:31;94765.28;;;11.84;75.11
62103;BME280;48077;48.104;11.702;2023-04-24T11:46:56;94753.75;;;11.79;74.54
62103;BME280;48077;48.104;11.702;2023-04-24T11:49:19;94762.84;;;11.78;75.98
62103;BME280;48077;48.104;11.702;2023-04-24T11:51:43;94754.53;;;11.74;73.19
62103;BME280;48077;48.104;11.702;2023-04-24T11:54:07;94775.66;;;11.81;71.46
62103;BME280;48077;48.104;11.702;2023-04-24T11:56:31;94758.22;;;11.68;71.04
62103;BME280;48077;48.104;11.702;2023-04-24T11:58:54;94762.03;;;12.25;69.18
62103;BME280;48077;48.104;11.702;2023-04-24T12:01:20;94759.66;;;12.23;70.61
62103;BME280;48077;48.104;11.702;2023-04-24T12:03:50;94759.78;;;11.96;73.35
62103;BME280;48077;48.104;11.702;2023-04-24T12:06:22;94768.19;;;11.78;73.81
62103;BME280;48077;48.104;11.702;2023-04-24T12:08:46;94769.38;;;11.60;75.67
62103;BME280;48077;48.104;11.702;2023-04-24T12:11:10;94768.41;;;11.33;72.68
62103;BME280;48077;48.104;11.702;2023-04-24T12:13:34;94789.34;;;11.14;74.67
62103;BME280;48077;48.104;11.702;2023-04-24T12:16:01;94782.53;;;10.74;75.51
62103;BME280;48077;48.104;11.702;2023-04-24T12:18:25;94776.78;;;10.61;80.68
62103;BME280;48077;48.104;11.702;2023-04-24T12:20:48;94775.69;;;10.57;81.54
62103;BME280;48077;48.104;11.702;2023-04-24T12:23:12;94772.28;;;10.66;80.36
62103;BME280;48077;48.104;11.702;2023-04-24T12:25:35;94773.72;;;11.01;80.10
62103;BME280;48077;48.104;11.702;2023-04-24T12:30:39;94771.72;;;11.19;76.37
62103;BME280;48077;48.104;11.702;2023-04-24T12:33:03;94767.69;;;11.11;79.10
62103;BME280;48077;48.104;11.702;2023-04-24T12:35:31;94774.47;;;10.97;79.21
62103;BME280;48077;48.104;11.702;2023-04-24T12:38:06;94762.69;;;10.92;79.24
62103;BME280;48077;48.104;11.702;2023-04-24T12:40:30;94763.38;;;11.10;80.28
62103;BME280;48077;48.104;11.702;2023-04-24T12:42:54;94766.16;;;11.52;79.29
62103;BME280;48077;48.104;11.702;2023-04-24T12:45:21;94758.06;;;11.80;77.53
62103;BME280;48077;48.104;11.702;2023-04-24T12:47:48;94749.84;;;11.91;75.24
62103;BME280;48077;48.104;11.702;2023-04-24T12:50:13;94761.91;;;11.99;74.17
62103;BME280;48077;48.104;11.702;2023-04-24T12:52:38;94763.75;;;11.93;73.32